Time;durP1;ratioP1;P1;durP2;ratioP2;P2;SDS_P1;SDS_P2;PMS_P1;PMS_P2;Temp;Humidity;BMP_temperature;BMP_pressure;BME280_temperature;BME280_humidity;BME280_pressure;Samples;Min_cycle;Max_cycle;Signal;HPM_P1;HPM_P2
2022/03/10 00:01:16;;;;;;;8.30;1.57;;;21.80;99.90;;;;;;4917822;29;20292;-68
2022/03/10 00:03:44;;;;;;;4.80;1.10;;;21.80;99.90;;;;;;4917987;29;20217;-69
2022/03/10 00:06:11;;;;;;;9.07;1.20;;;21.80;99.90;;;;;;4917889;29;20650;-70
2022/03/10 00:08:39;;;;;;;3.37;1.10;;;22.00;99.90;;;;;;4917888;29;20185;-68
2022/03/10 00:11:08;;;;;;;6.03;1.30;;;21.80;99.90;;;;;;4917279;29;20721;-68
2022/03/10 00:13:35;;;;;;;5.60;1.20;;;21.40;99.90;;;;;;4917118;29;20193;-68
2022/03/10 00:16:03;;;;;;;3.97;1.20;;;21.40;99.90;;;;;;4915456;29;20683;-69
2022/03/10 00:18:31;;;;;;;4.37;1.17;;;21.40;99.90;;;;;;4915913;29;20186;-68
2022/03/10 00:20:59;;;;;;;5.23;1.20;;;21.80;99.90;;;;;;4915812;29;20541;-69
2022/03/10 00:23:27;;;;;;;5.43;1.40;;;22.00;99.90;;;;;;4914718;29;20299;-67
2022/03/10 00:25:55;;;;;;;5.93;1.20;;;22.30;99.90;;;;;;4915614;29;20195;-69
2022/03/10 00:28:22;;;;;;;5.07;1.47;;;22.80;99.90;;;;;;4915581;29;20278;-68
2022/03/10 00:30:50;;;;;;;4.43;1.50;;;22.80;99.90;;;;;;4916432;29;20571;-69
2022/03/10 00:33:18;;;;;;;6.43;1.00;;;22.50;99.90;;;;;;4917329;29;20659;-69
2022/03/10 00:35:46;;;;;;;7.73;1.47;;;22.80;99.90;;;;;;4917332;29;20271;-69
2022/03/10 00:38:14;;;;;;;7.93;1.17;;;23.10;99.90;;;;;;4917558;29;20628;-69
2022/03/10 00:40:41;;;;;;;3.70;0.87;;;23.60;99.90;;;;;;4917390;29;20286;-70
2022/03/10 00:43:13;;;;;;;7.07;1.13;;;23.20;99.90;;;;;;4916494;29;20303;-69
2022/03/10 00:45:42;;;;;;;3.23;1.43;;;23.30;99.90;;;;;;4917097;29;20181;-68
2022/03/10 00:48:09;;;;;;;5.67;1.10;;;23.20;99.90;;;;;;4916935;29;20188;-69
2022/03/10 00:50:37;;;;;;;4.37;1.07;;;23.40;99.90;;;;;;4917051;29;20221;-68
2022/03/10 00:53:05;;;;;;;8.67;1.13;;;24.10;99.90;;;;;;4916298;29;20185;-69
2022/03/10 00:55:33;;;;;;;3.77;1.10;;;24.40;99.90;;;;;;4916466;29;20668;-68
2022/03/10 00:58:01;;;;;;;4.27;1.37;;;24.10;99.90;;;;;;4916712;29;20264;-69
2022/03/10 01:00:29;;;;;;;7.50;1.40;;;24.30;99.90;;;;;;4915823;29;20253;-69
2022/03/10 01:02:57;;;;;;;4.30;1.10;;;24.10;99.90;;;;;;4916863;29;20213;-70
2022/03/10 01:05:25;;;;;;;4.27;1.00;;;24.70;99.90;;;;;;4916860;29;20285;-70
2022/03/10 01:07:53;;;;;;;6.23;1.23;;;24.60;99.90;;;;;;4916863;29;20262;-69
2022/03/10 01:10:21;;;;;;;5.53;1.47;;;25.40;99.90;;;;;;4916179;29;20716;-70
2022/03/10 01:12:49;;;;;;;4.37;1.30;;;25.50;99.90;;;;;;4916756;29;20192;-70
2022/03/10 01:15:19;;;;;;;6.50;1.30;;;25.00;99.90;;;;;;4915583;29;20200;-69
2022/03/10 01:17:51;;;;;;;11.97;1.43;;;24.20;99.90;;;;;;4916607;29;20177;-69
2022/03/10 01:20:20;;;;;;;4.83;1.00;;;24.10;99.90;;;;;;4916475;29;20193;-69
2022/03/10 01:22:49;;;;;;;6.47;1.27;;;24.10;99.90;;;;;;4916378;29;20663;-69
2022/03/10 01:25:18;;;;;;;4.93;1.10;;;24.20;99.90;;;;;;4916261;29;20193;-70
2022/03/10 01:27:46;;;;;;;4.73;1.60;;;23.90;99.90;;;;;;4915938;29;20196;-70
2022/03/10 01:30:14;;;;;;;8.53;1.10;;;23.60;99.90;;;;;;4916219;29;20281;-69
2022/03/10 01:32:42;;;;;;;10.07;1.57;;;24.30;99.90;;;;;;4916413;29;20216;-70
2022/03/10 01:35:10;;;;;;;2.87;0.73;;;24.80;99.90;;;;;;4916618;29;20178;-70
2022/03/10 01:37:37;;;;;;;3.70;0.90;;;25.00;99.90;;;;;;4916004;29;20534;-69
2022/03/10 01:40:10;;;;;;;4.37;1.20;;;24.60;99.90;;;;;;4914728;29;20252;-69
2022/03/10 01:42:38;;;;;;;7.50;1.30;;;25.10;99.90;;;;;;4925476;29;20225;-69
2022/03/10 01:45:07;;;;;;;6.10;1.37;;;25.90;99.90;;;;;;4916145;29;20173;-70
2022/03/10 01:47:35;;;;;;;5.97;1.33;;;25.90;99.90;;;;;;4916110;29;20195;-69
2022/03/10 01:50:03;;;;;;;5.47;1.10;;;25.90;99.90;;;;;;4916005;29;20189;-69
2022/03/10 01:52:31;;;;;;;5.13;1.20;;;25.60;99.90;;;;;;4915013;29;20256;-69
2022/03/10 01:54:59;;;;;;;6.77;1.13;;;25.60;99.90;;;;;;4916099;29;20182;-69
2022/03/10 01:57:27;;;;;;;8.50;1.27;;;26.30;99.90;;;;;;4916190;29;20193;-69
2022/03/10 01:59:54;;;;;;;4.87;1.10;;;26.00;99.90;;;;;;4915694;29;20595;-69
2022/03/10 02:02:22;;;;;;;4.87;1.03;;;25.60;99.90;;;;;;4916010;29;20217;-70
2022/03/10 02:04:49;;;;;;;6.93;1.20;;;25.50;99.90;;;;;;4915756;29;20185;-69
2022/03/10 02:10:17;;;;;;;6.40;1.07;;;26.30;99.90;;;;;;4914947;29;20188;-70
2022/03/10 02:12:49;;;;;;;5.57;1.20;;;26.20;99.90;;;;;;4915078;29;20647;-70
2022/03/10 02:18:05;;;;;;;2.80;0.70;;;26.40;99.90;;;;;;4914700;29;20200;-70
2022/03/10 02:20:33;;;;;;;3.07;0.77;;;27.50;99.90;;;;;;4915530;29;20703;-71
2022/03/10 02:23:01;;;;;;;4.40;1.47;;;27.40;99.90;;;;;;4915774;29;20319;-69
2022/03/10 02:25:28;;;;;;;6.23;1.37;;;27.30;99.90;;;;;;4915581;29;20560;-70
2022/03/10 02:27:57;;;;;;;4.97;1.10;;;27.40;99.90;;;;;;4915651;29;20181;-70
2022/03/10 02:30:30;;;;;;;3.23;0.97;;;27.70;99.90;;;;;;4915238;29;20181;-68
2022/03/10 02:32:59;;;;;;;5.77;1.37;;;27.40;99.90;;;;;;4915724;29;20177;-69
2022/03/10 02:35:27;;;;;;;7.33;1.10;;;27.00;99.90;;;;;;4915683;29;20181;-68
2022/03/10 02:37:56;;;;;;;3.90;1.10;;;27.50;99.90;;;;;;4915098;29;20213;-69
2022/03/10 02:40:23;;;;;;;4.97;1.27;;;26.70;99.90;;;;;;4915302;29;20185;-69
2022/03/10 02:42:51;;;;;;;10.47;1.33;;;27.40;99.90;;;;;;4915426;29;20268;-68
2022/03/10 02:45:18;;;;;;;5.53;0.90;;;27.30;99.90;;;;;;4915931;29;20208;-68
2022/03/10 02:47:46;;;;;;;6.37;1.27;;;27.10;99.90;;;;;;4916296;29;20177;-68
2022/03/10 02:50:13;;;;;;;3.37;1.13;;;27.40;99.90;;;;;;4915548;29;20636;-68
2022/03/10 02:52:42;;;;;;;5.83;1.80;;;27.50;99.90;;;;;;4917365;29;20232;-71
2022/03/10 02:55:10;;;;;;;7.83;1.33;;;27.60;99.90;;;;;;4919906;29;20177;-68
2022/03/10 02:57:38;;;;;;;6.50;1.20;;;27.20;99.90;;;;;;4920220;29;20191;-69
2022/03/10 03:00:07;;;;;;;5.73;1.23;;;26.70;99.90;;;;;;4920061;29;20228;-69
2022/03/10 03:02:35;;;;;;;5.53;1.23;;;26.60;99.90;;;;;;4920448;29;20216;-69
2022/03/10 03:05:04;;;;;;;8.73;1.37;;;26.90;99.90;;;;;;4920508;29;20264;-69
2022/03/10 03:07:31;;;;;;;5.77;1.60;;;27.00;99.90;;;;;;4919901;29;20280;-69
2022/03/10 03:09:59;;;;;;;6.93;1.00;;;27.20;99.90;;;;;;4920172;29;20186;-69
2022/03/10 03:12:26;;;;;;;5.07;1.30;;;27.50;99.90;;;;;;4920265;29;20209;-69
2022/03/10 03:14:54;;;;;;;5.30;1.50;;;27.70;99.90;;;;;;4919841;29;20564;-70
2022/03/10 03:17:21;;;;;;;8.40;1.97;;;27.90;99.90;;;;;;4920033;29;20181;-69
2022/03/10 03:19:49;;;;;;;8.00;1.40;;;28.10;99.90;;;;;;4919822;29;20640;-70
2022/03/10 03:22:16;;;;;;;5.10;1.33;;;28.60;99.90;;;;;;4918571;29;20217;-70
2022/03/10 03:24:45;;;;;;;4.03;1.23;;;27.50;99.90;;;;;;4919938;29;20558;-69
2022/03/10 03:27:12;;;;;;;4.80;1.47;;;26.90;99.90;;;;;;4920008;29;20181;-70
2022/03/10 03:29:40;;;;;;;7.80;1.40;;;27.50;99.90;;;;;;4919962;29;20189;-69
2022/03/10 03:32:07;;;;;;;5.63;1.13;;;28.10;99.90;;;;;;4919707;29;20182;-69
2022/03/10 03:34:35;;;;;;;3.73;1.17;;;28.30;99.90;;;;;;4919813;29;20233;-69
2022/03/10 03:37:05;;;;;;;3.53;1.03;;;27.50;99.90;;;;;;4919525;29;20189;-69
2022/03/10 03:39:32;;;;;;;3.37;1.00;;;27.80;99.90;;;;;;4919633;29;20224;-69
2022/03/10 03:42:00;;;;;;;5.67;1.17;;;27.70;99.90;;;;;;4919672;29;20616;-69
2022/03/10 03:44:27;;;;;;;5.73;1.30;;;26.80;99.90;;;;;;4919193;29;20216;-70
2022/03/10 03:46:54;;;;;;;7.63;1.70;;;26.60;99.90;;;;;;4919361;29;20177;-69
2022/03/10 03:49:22;;;;;;;18.23;2.60;;;26.40;99.90;;;;;;4919561;29;20620;-70
2022/03/10 03:51:49;;;;;;;3.70;1.40;;;26.80;99.90;;;;;;4919380;29;20233;-70
2022/03/10 03:54:16;;;;;;;4.33;1.20;;;26.90;99.90;;;;;;4919337;29;20255;-70
2022/03/10 03:56:44;;;;;;;7.13;1.20;;;26.50;99.90;;;;;;4919317;29;20201;-70
2022/03/10 03:59:11;;;;;;;4.50;1.00;;;26.20;99.90;;;;;;4919479;29;20185;-71
2022/03/10 04:01:38;;;;;;;6.73;1.43;;;25.90;99.90;;;;;;4918965;29;20221;-71
2022/03/10 04:04:06;;;;;;;26.17;3.73;;;26.10;99.90;;;;;;4918573;29;20636;-71
2022/03/10 04:06:33;;;;;;;21.27;2.73;;;26.10;99.90;;;;;;4919265;29;20182;-70
2022/03/10 04:09:01;;;;;;;7.37;1.80;;;25.80;99.90;;;;;;4919043;29;20216;-70
2022/03/10 04:11:30;;;;;;;6.63;1.83;;;25.60;99.90;;;;;;4919146;29;20672;-70
2022/03/10 04:13:57;;;;;;;9.93;2.40;;;25.40;99.90;;;;;;4919176;29;20181;-71
2022/03/10 04:16:24;;;;;;;18.63;4.60;;;25.40;99.90;;;;;;4918783;29;20179;-70
2022/03/10 04:18:52;;;;;;;10.70;2.27;;;25.40;99.90;;;;;;4918898;29;20185;-70
2022/03/10 04:21:19;;;;;;;39.23;11.73;;;25.10;99.90;;;;;;4919023;29;20541;-70
2022/03/10 04:23:46;;;;;;;11.57;2.50;;;25.00;99.90;;;;;;4918947;29;20683;-70
2022/03/10 04:26:14;;;;;;;9.23;2.37;;;24.80;99.90;;;;;;4919000;29;20177;-70
2022/03/10 04:28:41;;;;;;;15.73;3.60;;;24.20;99.90;;;;;;4918330;29;20272;-70
2022/03/10 04:31:09;;;;;;;9.67;1.37;;;24.00;99.90;;;;;;4918624;29;20264;-68
2022/03/10 04:33:37;;;;;;;9.07;1.90;;;24.10;99.90;;;;;;4918549;29;20212;-70
2022/03/10 04:36:05;;;;;;;8.07;1.80;;;24.30;99.90;;;;;;4918509;29;20188;-70
2022/03/10 04:38:32;;;;;;;8.23;2.00;;;24.50;99.90;;;;;;4918734;29;20634;-70
2022/03/10 04:41:00;;;;;;;7.77;1.90;;;24.50;99.90;;;;;;4918538;29;20663;-70
2022/03/10 04:43:27;;;;;;;12.67;2.53;;;24.50;99.90;;;;;;4918355;29;20228;-70
2022/03/10 04:45:54;;;;;;;7.73;1.77;;;24.80;99.90;;;;;;4918410;29;20181;-70
2022/03/10 04:48:22;;;;;;;11.73;1.93;;;24.50;99.90;;;;;;4919984;29;20272;-71
2022/03/10 04:50:50;;;;;;;8.80;1.50;;;25.00;99.90;;;;;;4918884;29;20193;-70
2022/03/10 04:53:17;;;;;;;11.77;1.50;;;25.00;99.90;;;;;;4920313;29;20181;-71
2022/03/10 04:55:44;;;;;;;7.50;1.60;;;25.20;99.90;;;;;;4925194;29;20273;-72
2022/03/10 04:58:15;;;;;;;10.10;1.50;;;24.60;99.90;;;;;;4925408;29;20237;-68
2022/03/10 05:00:42;;;;;;;6.23;1.43;;;24.80;99.90;;;;;;4920281;29;20690;-68
2022/03/10 05:03:10;;;;;;;9.27;1.60;;;25.60;99.90;;;;;;4919623;29;20667;-68
2022/03/10 05:05:40;;;;;;;8.00;2.00;;;25.70;99.90;;;;;;4919999;29;20185;-69
2022/03/10 05:08:07;;;;;;;9.70;1.77;;;26.10;99.90;;;;;;4914997;29;20233;-69
2022/03/10 05:10:35;;;;;;;8.37;1.70;;;26.50;99.90;;;;;;4917021;29;20508;-69
2022/03/10 05:13:05;;;;;;;9.57;1.90;;;26.60;99.90;;;;;;4916540;29;20197;-68
2022/03/10 05:15:33;;;;;;;6.60;1.73;;;26.50;99.90;;;;;;4915854;29;20181;-69
2022/03/10 05:18:02;;;;;;;6.37;1.37;;;26.30;99.90;;;;;;4916722;29;20254;-68
2022/03/10 05:20:30;;;;;;;7.60;1.70;;;26.30;99.90;;;;;;4916613;29;20666;-69
2022/03/10 05:23:03;;;;;;;5.43;1.17;;;26.40;99.90;;;;;;4916567;29;20220;-69
2022/03/10 05:25:38;;;;;;;8.47;1.70;;;26.50;99.90;;;;;;4918482;29;20185;-69
2022/03/10 05:28:14;;;;;;;12.03;1.67;;;26.00;99.90;;;;;;4916487;29;20196;-69
2022/03/10 05:30:45;;;;;;;6.33;1.43;;;26.00;99.90;;;;;;4916520;29;20185;-69
2022/03/10 05:33:13;;;;;;;4.60;1.40;;;26.10;99.90;;;;;;4916057;29;20643;-68
2022/03/10 05:35:41;;;;;;;5.20;1.50;;;25.70;99.90;;;;;;4916445;29;20264;-69
2022/03/10 05:38:09;;;;;;;7.13;1.67;;;25.90;99.90;;;;;;4915240;29;20659;-69
2022/03/10 05:40:36;;;;;;;4.30;1.53;;;25.60;99.90;;;;;;4915091;29;20200;-70
2022/03/10 05:43:03;;;;;;;5.20;1.20;;;25.80;99.90;;;;;;4916137;29;20232;-69
2022/03/10 05:45:31;;;;;;;6.77;1.30;;;25.40;99.90;;;;;;4916080;29;20241;-69
2022/03/10 05:47:58;;;;;;;6.33;1.10;;;25.30;99.90;;;;;;4915909;29;20199;-68
2022/03/10 05:50:27;;;;;;;6.37;1.77;;;25.20;99.90;;;;;;4915694;29;20185;-68
2022/03/10 05:52:54;;;;;;;7.67;1.67;;;25.20;99.90;;;;;;4915620;29;20185;-69
2022/03/10 05:55:23;;;;;;;4.63;1.13;;;24.70;99.90;;;;;;4915594;29;20182;-68
2022/03/10 05:57:50;;;;;;;8.00;1.63;;;24.40;99.90;;;;;;4915604;29;20269;-68
2022/03/10 06:00:18;;;;;;;6.20;1.10;;;24.30;99.90;;;;;;4915308;29;20232;-68
2022/03/10 06:02:45;;;;;;;7.87;1.40;;;24.20;99.90;;;;;;4928110;29;20630;-68
2022/03/10 06:05:13;;;;;;;3.70;1.30;;;24.10;99.90;;;;;;4916008;29;20515;-69
2022/03/10 06:07:41;;;;;;;5.57;1.50;;;24.20;99.90;;;;;;4916018;29;20187;-69
2022/03/10 06:10:09;;;;;;;5.13;1.40;;;24.10;99.90;;;;;;4915639;29;20181;-69
2022/03/10 06:12:36;;;;;;;3.60;1.30;;;23.80;99.90;;;;;;4915943;29;20200;-68
2022/03/10 06:15:07;;;;;;;6.33;1.50;;;23.80;99.90;;;;;;4915771;29;20184;-69
2022/03/10 06:17:34;;;;;;;4.80;1.13;;;23.70;99.90;;;;;;4915742;29;20196;-69
2022/03/10 06:20:02;;;;;;;7.07;1.60;;;23.80;99.90;;;;;;4915765;29;20181;-69
2022/03/10 06:22:31;;;;;;;4.93;1.50;;;23.30;99.90;;;;;;4915745;29;20220;-68
2022/03/10 06:24:59;;;;;;;10.37;1.40;;;23.30;99.90;;;;;;4915157;29;20177;-68
2022/03/10 06:27:27;;;;;;;12.43;1.50;;;23.30;99.90;;;;;;4918486;29;20232;-69
2022/03/10 06:29:55;;;;;;;4.57;1.53;;;23.10;99.90;;;;;;4921563;29;20302;-69
2022/03/10 06:32:25;;;;;;;6.63;1.47;;;22.80;99.90;;;;;;4921161;29;20184;-69
2022/03/10 06:34:54;;;;;;;18.10;4.40;;;23.00;99.90;;;;;;4920601;29;20210;-68
2022/03/10 06:37:23;;;;;;;15.17;2.23;;;22.90;99.90;;;;;;4920780;29;20182;-68
2022/03/10 06:39:52;;;;;;;12.47;2.00;;;22.90;99.90;;;;;;4921695;29;20275;-69
2022/03/10 06:42:20;;;;;;;6.20;1.60;;;22.90;99.90;;;;;;4902760;29;20592;-70
2022/03/10 06:44:47;;;;;;;10.97;2.33;;;23.00;99.90;;;;;;4914289;29;20196;-70
2022/03/10 06:47:15;;;;;;;12.03;2.20;;;22.80;99.90;;;;;;4921497;29;20185;-69
2022/03/10 06:49:43;;;;;;;14.20;3.83;;;23.00;99.90;;;;;;4920740;29;20232;-69
2022/03/10 06:52:10;;;;;;;51.53;9.10;;;23.70;99.90;;;;;;4919544;29;20212;-69
2022/03/10 06:54:39;;;;;;;10.20;1.80;;;24.20;99.90;;;;;;4921434;29;20196;-69
2022/03/10 06:57:07;;;;;;;34.60;6.70;;;24.00;99.90;;;;;;4921145;29;20193;-69
2022/03/10 06:59:35;;;;;;;6.90;1.57;;;23.90;99.90;;;;;;4921334;29;20189;-70
2022/03/10 07:02:03;;;;;;;52.77;14.53;;;23.40;99.90;;;;;;4920478;29;20264;-69
2022/03/10 07:04:31;;;;;;;30.80;8.23;;;22.80;99.90;;;;;;4920764;29;20197;-69
2022/03/10 07:06:58;;;;;;;115.37;38.73;;;22.60;99.90;;;;;;4921682;29;20189;-69
2022/03/10 07:09:25;;;;;;;10.43;2.97;;;22.50;99.90;;;;;;4920285;29;20188;-69
2022/03/10 07:11:54;;;;;;;8.03;2.00;;;22.20;99.90;;;;;;4921379;29;20548;-69
2022/03/10 07:14:21;;;;;;;10.43;2.17;;;22.10;99.90;;;;;;4921655;29;20212;-69
2022/03/10 07:16:48;;;;;;;12.30;4.33;;;22.10;99.90;;;;;;4921567;29;20174;-69
2022/03/10 07:19:16;;;;;;;11.83;3.80;;;22.10;99.90;;;;;;4920880;29;20197;-69
2022/03/10 07:21:43;;;;;;;45.17;16.13;;;22.10;99.90;;;;;;4921595;29;20600;-69
2022/03/10 07:24:11;;;;;;;9.93;2.60;;;21.80;99.90;;;;;;4921217;29;20761;-69
2022/03/10 07:26:38;;;;;;;8.17;2.57;;;21.70;99.90;;;;;;4921109;29;20252;-69
2022/03/10 07:29:06;;;;;;;8.47;2.13;;;21.80;99.90;;;;;;4920475;29;20232;-68
2022/03/10 07:31:33;;;;;;;45.40;11.37;;;21.70;99.90;;;;;;4921273;29;20181;-71
2022/03/10 07:34:01;;;;;;;14.27;2.70;;;21.60;99.90;;;;;;4921385;29;20181;-71
2022/03/10 07:36:29;;;;;;;21.97;6.20;;;21.50;99.90;;;;;;4921327;29;20191;-70
2022/03/10 07:38:56;;;;;;;16.73;3.50;;;21.40;99.90;;;;;;4917970;29;20606;-69
2022/03/10 07:41:23;;;;;;;5.83;1.30;;;21.40;99.90;;;;;;4916497;29;20185;-68
2022/03/10 07:43:51;;;;;;;6.63;1.30;;;21.50;99.90;;;;;;4917808;29;20216;-70
2022/03/10 07:46:22;;;;;;;11.23;2.60;;;21.40;99.90;;;;;;4918449;29;20702;-69
2022/03/10 07:48:51;;;;;;;14.97;2.10;;;21.40;99.90;;;;;;4918418;29;20579;-68
2022/03/10 07:51:20;;;;;;;6.77;1.57;;;21.40;99.90;;;;;;4917706;29;20181;-69
2022/03/10 07:53:47;;;;;;;8.73;2.07;;;21.30;99.90;;;;;;4917724;29;20245;-70
2022/03/10 07:56:16;;;;;;;8.20;2.20;;;21.40;99.90;;;;;;4918102;29;20193;-69
2022/03/10 07:58:44;;;;;;;7.50;1.53;;;21.30;99.90;;;;;;4917683;29;20225;-69
2022/03/10 08:01:11;;;;;;;7.40;1.40;;;21.30;99.90;;;;;;4916920;29;20235;-68
2022/03/10 08:03:39;;;;;;;6.23;1.20;;;21.30;99.90;;;;;;4908867;29;20222;-70
2022/03/10 08:06:07;;;;;;;5.27;1.70;;;21.20;99.90;;;;;;4916663;29;20216;-69
2022/03/10 08:08:34;;;;;;;7.83;1.30;;;21.10;99.90;;;;;;4917680;29;20207;-69
2022/03/10 08:11:03;;;;;;;4.73;1.10;;;21.10;99.90;;;;;;4917463;29;20184;-68
2022/03/10 08:13:31;;;;;;;4.27;1.10;;;21.00;99.90;;;;;;4916213;29;20611;-69
2022/03/10 08:15:59;;;;;;;4.97;1.17;;;20.90;99.90;;;;;;4917811;29;20274;-69
2022/03/10 08:18:29;;;;;;;7.23;1.30;;;20.90;99.90;;;;;;4917418;29;20678;-68
2022/03/10 08:21:00;;;;;;;11.17;1.40;;;20.90;99.90;;;;;;4917408;29;20193;-69
2022/03/10 08:23:28;;;;;;;4.03;0.83;;;20.80;99.90;;;;;;4917079;29;20570;-69
2022/03/10 08:25:56;;;;;;;8.40;1.20;;;20.90;99.90;;;;;;4909881;29;20189;-69
2022/03/10 08:28:26;;;;;;;6.03;1.10;;;20.90;99.90;;;;;;4917072;29;20193;-69
2022/03/10 08:30:54;;;;;;;4.57;1.40;;;20.90;99.90;;;;;;4917595;29;20272;-68
2022/03/10 08:33:21;;;;;;;8.30;1.63;;;20.80;99.90;;;;;;4916854;29;20205;-68
2022/03/10 08:35:49;;;;;;;5.63;1.73;;;20.80;99.90;;;;;;4913826;29;20666;-68
2022/03/10 08:38:17;;;;;;;4.07;1.10;;;20.80;99.90;;;;;;4915959;29;20548;-69
2022/03/10 08:40:45;;;;;;;5.00;1.13;;;20.80;99.90;;;;;;4916692;29;20190;-69
2022/03/10 08:43:13;;;;;;;2.10;1.03;;;20.80;99.90;;;;;;4917434;29;20229;-69
2022/03/10 08:45:41;;;;;;;3.90;1.30;;;20.70;99.90;;;;;;4917286;29;20194;-68
2022/03/10 08:48:09;;;;;;;6.00;1.33;;;20.80;99.90;;;;;;4916730;29;20191;-69
2022/03/10 08:50:36;;;;;;;1.77;0.90;;;20.80;99.90;;;;;;4916210;29;20225;-67
2022/03/10 08:53:04;;;;;;;6.90;1.20;;;20.80;99.90;;;;;;4916631;29;20276;-67
2022/03/10 08:55:31;;;;;;;4.40;1.50;;;20.80;99.90;;;;;;4916549;29;20280;-68
2022/03/10 08:58:00;;;;;;;7.93;1.10;;;20.70;99.90;;;;;;4914112;29;20195;-67
2022/03/10 09:00:27;;;;;;;4.80;1.27;;;20.60;99.90;;;;;;4916067;29;20250;-68
2022/03/10 09:02:55;;;;;;;3.47;1.00;;;20.70;99.90;;;;;;4915980;29;20217;-68
2022/03/10 09:05:22;;;;;;;5.23;1.33;;;20.70;99.90;;;;;;4916990;29;20666;-67
2022/03/10 09:07:49;;;;;;;4.73;1.40;;;20.60;99.90;;;;;;4916604;29;20228;-68
2022/03/10 09:10:17;;;;;;;7.67;1.40;;;20.50;99.90;;;;;;4914568;29;20570;-68
2022/03/10 09:12:44;;;;;;;6.50;1.43;;;20.60;99.90;;;;;;4916834;29;20272;-67
2022/03/10 09:15:11;;;;;;;7.53;1.50;;;20.60;99.90;;;;;;4917032;29;20181;-68
2022/03/10 09:17:39;;;;;;;8.03;1.13;;;20.50;99.90;;;;;;4916741;29;20229;-69
2022/03/10 09:20:07;;;;;;;6.40;1.00;;;20.60;99.90;;;;;;4915084;29;20181;-69
2022/03/10 09:22:35;;;;;;;6.03;1.10;;;20.60;99.90;;;;;;4916265;29;20219;-68
2022/03/10 09:25:05;;;;;;;5.43;1.17;;;20.50;99.90;;;;;;4916984;29;20319;-69
2022/03/10 09:27:33;;;;;;;4.00;0.90;;;20.40;99.90;;;;;;4916956;29;20241;-68
2022/03/10 09:30:00;;;;;;;6.00;1.17;;;20.30;99.90;;;;;;4920827;29;20181;-69
2022/03/10 09:32:34;;;;;;;5.33;1.43;;;20.30;99.90;;;;;;4917480;29;20273;-68
2022/03/10 09:35:03;;;;;;;5.00;1.00;;;20.40;99.90;;;;;;4917644;29;20242;-69
2022/03/10 09:37:30;;;;;;;6.70;1.10;;;20.40;99.90;;;;;;4917490;29;20175;-69
2022/03/10 09:39:58;;;;;;;8.80;1.80;;;20.30;99.90;;;;;;4917531;29;20187;-69
2022/03/10 09:42:33;;;;;;;1.87;1.00;;;20.30;99.90;;;;;;4917450;29;20542;-70
2022/03/10 09:45:11;;;;;;;4.87;1.43;;;20.40;99.90;;;;;;4917754;29;20248;-69
2022/03/10 09:47:40;;;;;;;4.17;1.10;;;20.40;99.90;;;;;;4917313;29;20232;-68
2022/03/10 09:50:13;;;;;;;7.30;1.57;;;20.40;99.90;;;;;;4917503;29;20632;-69
2022/03/10 09:52:42;;;;;;;7.90;1.50;;;20.40;99.90;;;;;;4917449;29;20179;-70
2022/03/10 09:55:12;;;;;;;5.67;1.47;;;20.40;99.90;;;;;;4916163;29;20225;-69
2022/03/10 09:57:42;;;;;;;6.90;1.20;;;20.30;99.90;;;;;;4917096;29;20173;-69
2022/03/10 10:00:11;;;;;;;6.77;1.53;;;20.10;99.90;;;;;;4917121;29;20227;-70
2022/03/10 10:02:42;;;;;;;3.57;1.10;;;20.20;99.90;;;;;;4916765;29;20656;-69
2022/03/10 10:05:26;;;;;;;6.73;1.43;;;20.20;99.90;;;;;;4916926;29;20196;-69
2022/03/10 10:08:17;;;;;;;7.73;1.20;;;20.20;99.90;;;;;;4917386;29;20169;-69
2022/03/10 10:10:47;;;;;;;5.47;1.53;;;20.20;99.90;;;;;;4917247;29;20186;-71
2022/03/10 10:13:38;;;;;;;6.23;1.60;;;20.20;99.90;;;;;;4917285;29;20178;-69
2022/03/10 10:16:07;;;;;;;4.87;1.30;;;20.20;99.90;;;;;;4917201;29;20192;-70
2022/03/10 10:18:36;;;;;;;5.00;1.30;;;20.10;99.90;;;;;;4916900;29;20193;-69
2022/03/10 10:21:06;;;;;;;6.30;1.27;;;20.20;99.90;;;;;;4916997;29;20181;-69
2022/03/10 10:23:35;;;;;;;3.97;1.40;;;20.20;99.90;;;;;;4916816;29;20225;-69
2022/03/10 10:26:15;;;;;;;4.90;1.10;;;20.10;99.90;;;;;;4917063;29;20180;-69
2022/03/10 10:28:44;;;;;;;7.10;1.77;;;20.10;99.90;;;;;;4917088;29;20191;-69
2022/03/10 10:31:13;;;;;;;3.87;1.10;;;20.10;99.90;;;;;;4917024;29;20529;-69
2022/03/10 10:33:44;;;;;;;7.30;1.43;;;20.00;99.90;;;;;;4917048;29;20218;-69
2022/03/10 10:36:15;;;;;;;5.27;1.50;;;19.90;99.90;;;;;;4916893;29;20296;-69
2022/03/10 10:38:44;;;;;;;8.00;1.60;;;19.90;99.90;;;;;;4916826;29;20233;-69
2022/03/10 10:41:28;;;;;;;6.40;1.20;;;19.80;99.90;;;;;;4917019;29;20268;-69
2022/03/10 10:44:07;;;;;;;8.07;1.83;;;19.80;99.90;;;;;;4916817;29;20227;-69
2022/03/10 10:46:40;;;;;;;8.07;1.77;;;19.70;99.90;;;;;;4916842;29;20189;-69
2022/03/10 10:49:16;;;;;;;6.67;1.83;;;19.80;99.90;;;;;;4916732;29;20273;-69
2022/03/10 10:51:48;;;;;;;6.30;1.80;;;19.70;99.90;;;;;;4916758;29;20183;-70
2022/03/10 10:54:23;;;;;;;7.90;1.80;;;19.60;99.90;;;;;;4916762;29;20632;-68
2022/03/10 10:56:53;;;;;;;6.83;1.60;;;19.60;99.90;;;;;;4916708;29;20173;-68
2022/03/10 10:59:27;;;;;;;14.90;1.70;;;19.60;99.90;;;;;;4917009;29;20177;-69
2022/03/10 11:02:19;;;;;;;7.10;1.80;;;19.60;99.90;;;;;;4916463;29;20223;-69
2022/03/10 11:04:54;;;;;;;16.60;3.00;;;19.60;99.90;;;;;;4916216;29;20226;-70
2022/03/10 11:07:23;;;;;;;8.17;1.80;;;19.60;99.90;;;;;;4915764;29;20185;-69
2022/03/10 11:09:55;;;;;;;4.00;1.67;;;19.60;99.90;;;;;;4916764;29;20566;-70
2022/03/10 11:12:22;;;;;;;7.37;2.10;;;19.60;99.90;;;;;;4916791;29;20181;-69
2022/03/10 11:14:49;;;;;;;3.93;1.60;;;19.60;99.90;;;;;;4919456;29;20188;-68
2022/03/10 11:17:19;;;;;;;7.47;2.30;;;19.60;99.90;;;;;;4919760;29;20201;-68
2022/03/10 11:19:48;;;;;;;9.23;2.10;;;19.60;99.90;;;;;;4919578;29;20261;-68
2022/03/10 11:22:32;;;;;;;10.17;2.30;;;19.60;99.90;;;;;;4919946;29;20213;-68
2022/03/10 11:25:36;;;;;;;6.47;2.00;;;19.60;99.90;;;;;;4901616;29;20250;-68
2022/03/10 11:28:05;;;;;;;6.10;1.77;;;19.50;99.90;;;;;;4915294;29;20202;-69
2022/03/10 11:30:34;;;;;;;7.70;1.87;;;19.60;99.90;;;;;;4918984;29;20196;-68
2022/03/10 11:33:13;;;;;;;11.13;1.87;;;19.50;99.90;;;;;;4919204;29;20181;-68
2022/03/10 11:35:43;;;;;;;9.70;2.20;;;19.50;99.90;;;;;;4918983;29;20190;-69
2022/03/10 11:38:11;;;;;;;7.43;1.80;;;19.40;99.90;;;;;;4919243;29;20213;-68
2022/03/10 11:40:57;;;;;;;6.83;2.17;;;19.40;99.90;;;;;;4919672;29;20741;-68
2022/03/10 11:43:36;;;;;;;9.73;1.80;;;19.30;99.90;;;;;;4918573;29;20220;-69
2022/03/10 11:46:22;;;;;;;6.90;1.70;;;19.20;99.90;;;;;;4919274;29;20181;-69
2022/03/10 11:49:12;;;;;;;8.10;1.87;;;19.20;99.90;;;;;;4917541;29;20257;-69
2022/03/10 11:51:52;;;;;;;13.63;2.47;;;19.10;99.90;;;;;;4919487;29;20228;-70
2022/03/10 11:54:32;;;;;;;5.27;1.70;;;19.00;99.90;;;;;;4918130;29;20193;-69
2022/03/10 11:57:07;;;;;;;9.17;1.70;;;18.90;99.90;;;;;;4919113;29;20216;-70
2022/03/10 11:59:35;;;;;;;7.73;2.23;;;18.90;99.90;;;;;;4919379;29;20213;-69
2022/03/10 12:02:03;;;;;;;4.97;1.60;;;18.80;99.90;;;;;;4919406;29;20234;-69
2022/03/10 12:04:38;;;;;;;6.03;1.63;;;18.80;99.90;;;;;;4919384;29;20216;-69
2022/03/10 12:07:09;;;;;;;5.80;1.77;;;18.80;99.90;;;;;;4919316;29;20180;-70
2022/03/10 12:09:41;;;;;;;9.47;2.47;;;18.80;99.90;;;;;;4919370;29;20612;-69
2022/03/10 12:12:26;;;;;;;8.83;1.93;;;18.70;99.90;;;;;;4919092;29;20268;-69
2022/03/10 12:14:57;;;;;;;8.30;1.60;;;18.70;99.90;;;;;;4918510;29;20189;-68
2022/03/10 12:17:45;;;;;;;3.43;1.60;;;18.70;99.90;;;;;;4918751;29;20193;-69
2022/03/10 12:20:15;;;;;;;8.13;1.90;;;18.60;99.90;;;;;;4919466;29;20206;-70
2022/03/10 12:23:15;;;;;;;9.83;1.80;;;18.60;99.90;;;;;;4918904;29;20214;-70
2022/03/10 12:26:10;;;;;;;8.23;1.93;;;18.60;99.90;;;;;;4912201;29;20193;-69
2022/03/10 12:28:42;;;;;;;8.03;1.60;;;18.60;99.90;;;;;;4917813;29;20232;-68
2022/03/10 12:31:11;;;;;;;9.60;2.00;;;18.60;99.90;;;;;;4918067;29;20667;-69
2022/03/10 12:33:50;;;;;;;6.13;1.90;;;18.70;99.90;;;;;;4918391;29;20174;-69
2022/03/10 12:36:42;;;;;;;10.00;1.90;;;18.70;99.90;;;;;;4916464;29;20237;-69
2022/03/10 12:39:17;;;;;;;5.83;1.80;;;18.70;99.90;;;;;;4917889;29;20173;-69
2022/03/10 12:41:50;;;;;;;6.03;1.60;;;18.70;99.90;;;;;;4917175;29;20279;-68
2022/03/10 12:44:21;;;;;;;6.40;1.50;;;18.70;99.90;;;;;;4918456;29;20217;-68
2022/03/10 12:46:50;;;;;;;13.17;2.10;;;18.70;99.90;;;;;;4918624;29;20178;-69
2022/03/10 12:49:29;;;;;;;10.30;1.73;;;18.60;99.90;;;;;;4917099;29;20173;-68
2022/03/10 12:51:58;;;;;;;9.00;1.90;;;18.60;99.90;;;;;;4918287;29;20186;-68
2022/03/10 12:54:26;;;;;;;3.33;1.30;;;18.60;99.90;;;;;;4918250;29;20189;-68
2022/03/10 12:56:56;;;;;;;10.83;1.90;;;18.60;99.90;;;;;;4918386;29;20183;-68
2022/03/10 12:59:30;;;;;;;5.10;1.30;;;18.60;99.90;;;;;;4918455;29;20229;-68
2022/03/10 13:02:17;;;;;;;6.70;1.30;;;18.60;99.90;;;;;;4918147;29;20268;-68
2022/03/10 13:08:09;;;;;;;9.70;1.83;;;18.70;99.90;;;;;;4917262;29;20722;-67